x

Central Aleutians 230nm Sw Dutch Harbor (46072) Wave Buoy

3:50 - Sat 10th Dec 2016 All times are UTC.

  • Sig Wave height 7.2ft
  • Swell Direction
  • Peak Period 6s
  • Average Period 5s
  • Wind
    29mph, 34mph gusts
  • Sea Temp 44°f
  • Luft Temp 39°f
  • Sea Pressure 1016.6mb

More Historic Weather Station data

Upgrade to MSW Pro to gain access to the past 30 days of data for over 8000 Wavebouys and Weather Stations around the globe.

Join Pro

Comparision Forecast

View Surf forecast
   
Sa 12/10 3:50 7ft 6s 5s 29 34 mph 1016.6mb 44f 39f
2:50 7ft 5s 5s 29 36 mph 1017.4mb 44f 38f
1:50 6ft 5s 5s 27 31 mph 1018.4mb 44f 38f
12:50 6ft 12s 5s 25 31 mph 1019.2mb 44f 38f
11:50 6.5ft 12s 5s 25 29 mph 1019.9mb 44f 38f
10:50 6ft 12s 5s 27 31 mph 1020.4mb 44f 38f
9:50 6ft 13s 6s 22 29 mph 1021.1mb 44f 38f
8:50 6.5ft 12s 6s 25 29 mph 1021mb 44f 38f
7:50 6ft 12s 6s 22 27 mph 1021.3mb 44f 38f
6:50 7ft 13s 7s 20 27 mph 1021.9mb 44f 38f
5:50 7.5ft 13s 7s 20 22 mph 1022.3mb 44f 38f
4:50 8ft 13s 8s 16 20 mph 1022.8mb 44f 38f
3:50 8ft 13s 9s 13 20 mph 1023mb 44f 37f
2:50 8ft 13s 9s 13 18 mph 1023.1mb 44f 37f
1:50 8ft 13s 9s 13 18 mph 1023.4mb 44f 37f
12:50 8ft 13s 9s 13 18 mph 1023.6mb 44f 38f
Fr 12/09 11:50 10ft 14s 10s 13 18 mph 1023.6mb 44f 38f
10:50 9ft 14s 9s 13 18 mph 1023.7mb 44f 37f
9:50 8ft 14s 8s 16 22 mph 1023.6mb 44f 38f
8:50 9ft 14s 9s 16 22 mph 1023.6mb 44f 37f
7:50 9ft 15s 9s 13 18 mph 1023.6mb 44f 38f
6:50 10ft 15s 10s 13 18 mph 1023.3mb 44f 39f
5:50 9.5ft 14s 9s 11 13 mph 1023.3mb 44f 39f
4:50 11ft 15s 10s 11 16 mph 1023.1mb 44f 40f
3:50 10.5ft 15s 10s 9 11 mph 1022.8mb 44f 40f
2:50 11.5ft 15s 10s 9 13 mph 1022.6mb 44f 40f
1:50 10.5ft 16s 10s 11 16 mph 1023mb 44f 40f
12:50 11.5ft 15s 11s 9 13 mph 1022.9mb 44f 40f
11:50 10.5ft 16s 11s 11 16 mph 1022.7mb 44f 40f
10:50 11ft 16s 11s 7 9 mph 1022.7mb 44f 40f
9:50 9.5ft 16s 9s  -  4 mph 1022.6mb 44f 40f
8:50 8.5ft 16s 9s 2 4 mph 1022.2mb 44f 40f
7:50 8ft 16s 8s  -  2 mph 1022mb 44f 40f
6:50 8ft 11s 8s 7 9 mph 1021.5mb 44f 40f
5:50 8ft 8s 8s 4 7 mph 1021.4mb 44f 40f
4:50 8ft 11s 7s 2 7 mph 1021.5mb 44f 40f
3:50 8ft 11s 8s 4 7 mph 1021.8mb 44f 40f
2:50 8.5ft 11s 8s 4 9 mph 1022mb 44f 40f
12:50 7ft 12s 8s 11 16 mph 1022.8mb 44f 41f
Do 12/08 11:50 7ft 11s 8s 13 18 mph 1023.2mb 44f 41f
10:50 6ft 11s 8s 11 16 mph 1023.8mb 44f 41f
9:50 6ft 11s 8s 9 13 mph 1024.5mb 44f 41f
8:50 6.5ft 12s 8s 7 11 mph 1025mb 44f 40f
7:50 6.5ft 12s 8s 4 9 mph 1025.9mb 44f 40f
6:50 6.5ft 13s 8s 2 4 mph 1025.4mb 44f 40f
5:50 6.5ft 11s 8s 2 7 mph 1026.5mb 44f 40f
4:50 7ft 8s 8s 4 9 mph 1027.1mb 44f 39f
3:50 7ft 9s 8s 4 7 mph 1027.2mb 44f 39f
2:50 7ft 9s 8s 2 4 mph 1027.9mb 44f 39f
1:50 7ft 10s 8s  -  2 mph 1028.5mb 44f 39f
12:50 6ft 10s 8s  -  2 mph 1028.8mb 44f 39f
11:50 6ft 8s 8s 2 7 mph 1028.9mb 44f 39f
10:50 6ft 10s 9s  -  2 mph 1029.8mb 44f 39f
9:50 5.5ft 11s 9s 4 7 mph 1029.9mb 44f 39f
8:50 6ft 11s 9s 2 4 mph 1030.3mb 44f 39f
7:50 5.5ft 10s 9s 2 4 mph 1030.4mb 44f 39f
5:50 4.5ft 10s 7s 9 11 mph 1030.9mb 44f 38f
4:50 5ft 9s 7s 9 13 mph 1031mb 44f 39f
3:50 5ft 9s 7s 11
mph
1031.4mb 44f 39f
2:50 5ft 10s 7s 9 11 mph 1031.7mb 44f 39f
1:50 4.5ft 10s 8s 7 9 mph 1031.6mb 44f 40f
12:50 5ft 10s 8s 7 9 mph 1031.7mb 44f 40f
Mi 12/07 11:50 4.5ft 11s 8s 7 9 mph 1032.3mb 44f 40f
10:50 5ft 10s 8s 4 7 mph 1032.5mb 44f 40f
9:50 4.5ft 10s 8s 7 11 mph 1033mb 44f 40f
8:50 4.5ft 10s 8s 9 11 mph 1033mb 44f 40f
7:50 4.5ft 9s 8s 4 7 mph 1033.5mb 44f 40f
6:50 5ft 10s 8s 4 7 mph 1033.5mb 44f 41f
4:50 6ft 9s 8s 2 4 mph 1033.4mb 44f 41f
3:50 5.5ft 10s 8s 7 9 mph 1033.8mb 44f 41f
2:50 6ft 11s 8s 4 7 mph 1033.8mb 44f 41f
1:50 5.5ft 11s 8s 4 7 mph 1034.5mb 44f 41f
12:50 5.5ft 10s 7s 9 11 mph 1034.9mb 44f 42f
11:50 6ft 10s 8s 9 11 mph 1035.2mb 44f 42f
10:50 6.5ft 10s 8s 7 9 mph 1035.3mb 44f 42f
9:50 6ft 11s 8s 9 11 mph 1035.1mb 45f 42f
8:50 5.5ft 11s 8s 9 11 mph 1035.2mb 45f 42f
7:50 6ft 11s 8s 11 13 mph 1035.2mb 45f 42f
6:50 6ft 11s 8s 9 11 mph 1035.2mb 45f 42f
5:50 6ft 11s 8s 11 16 mph 1035.3mb 45f 42f
4:50 6.5ft 11s 8s 11 13 mph 1035.1mb 45f 42f
3:50 6.5ft 12s 8s 11 13 mph 1034.9mb 44f 42f
2:50 7ft 11s 7s 9 11 mph 1034.9mb 44f 42f
1:50 8ft 10s 8s 11 13 mph 1034.8mb 44f 42f
12:50 8ft 11s 8s 11 16 mph 1034.8mb 45f 42f
Di 12/06 11:50 8ft 12s 8s 13 16 mph 1035mb 45f 42f
10:50 8ft 11s 8s 9 13 mph 1035.3mb 45f 42f
9:50 7.5ft 11s 8s 9 11 mph 1035.6mb 44f 42f
8:50 7.5ft 11s 8s 13 16 mph 1035.4mb 44f 43f
7:50 8.5ft 12s 9s 13 16 mph 1035.3mb 44f 43f
6:50 8.5ft 12s 9s 11 13 mph 1034.8mb 44f 43f
5:50 8ft 12s 9s 13 18 mph 1034.5mb 44f 43f
4:50 8ft 12s 8s 13 16 mph 1034.2mb 45f 43f